Terminal Aerodrome Forecast
Issued by NWS

Home | Current Version | Previous Version | Text Only | Print | Product List | Glossary On
Versions: 1 2 3 4 5 6 7 8 9 10 11 12
246
FTUS42 TJSJ 230541
TAFISX
TAF
TISX 230541Z 2306/2406 10010KT P6SM VCSH SCT025 SCT035
     FM231400 13010KT P6SM SCT026 SCT100
     FM232300 06006KT P6SM VCSH SCT030 SCT060=

USA.gov is the U.S. government's official web portal to all federal, state and local government web resources and services.